createdAt,value
2018-04-28T00:01:40.847Z,95362.23
2018-04-28T00:04:09.161Z,95371.56
2018-04-28T00:06:37.508Z,95368.48
2018-04-28T00:09:05.838Z,95377.16
2018-04-28T00:11:34.166Z,95372.98
2018-04-28T00:14:02.529Z,95369.59
2018-04-28T00:16:33.689Z,95369.36
2018-04-28T00:19:04.352Z,95373.34
2018-04-28T00:21:38.582Z,95377.14
2018-04-28T00:24:08.429Z,95379.77
2018-04-28T00:26:38.459Z,95383.83
2018-04-28T00:29:08.580Z,95388.25
2018-04-28T00:34:52.073Z,95386.09
2018-04-28T00:37:20.405Z,95387.75
2018-04-28T00:40:11.314Z,95396.54
2018-04-28T00:42:40.505Z,95397.80
2018-04-28T00:45:11.712Z,95385.13
2018-04-28T00:47:43.360Z,95385.93
2018-04-28T00:53:26.057Z,95385.02
2018-04-28T00:55:57.005Z,95386.48
2018-04-28T00:58:30.812Z,95394.88
2018-04-28T01:01:02.772Z,95388.94
2018-04-28T01:03:34.666Z,95390.63
2018-04-28T01:06:03.540Z,95393.45
2018-04-28T01:08:31.928Z,95398.79
2018-04-28T01:11:11.820Z,95399.59
2018-04-28T01:13:40.858Z,95399.95
2018-04-28T01:16:09.207Z,95408.23
2018-04-28T01:18:46.285Z,95410.11
2018-04-28T01:21:25.325Z,95408.80
2018-04-28T01:23:55.119Z,95409.53
2018-04-28T01:29:23.607Z,95413.81
2018-04-28T01:31:58.711Z,95416.88
2018-04-28T01:34:29.880Z,95420.41
2018-04-28T01:37:12.492Z,95424.88
2018-04-28T01:39:40.892Z,95424.78
2018-04-28T01:48:30.228Z,95437.16
2018-04-28T01:50:58.580Z,95448.31
2018-04-28T01:53:31.769Z,95446.88
2018-04-28T01:56:05.478Z,95452.69
2018-04-28T01:58:38.569Z,95452.23
2018-04-28T02:04:07.140Z,95471.23
2018-04-28T02:06:37.717Z,95476.80
2018-04-28T02:09:18.564Z,95476.41
2018-04-28T02:11:50.453Z,95483.16
2018-04-28T02:17:15.267Z,95483.83
2018-04-28T02:19:52.528Z,95490.52
2018-04-28T02:25:36.925Z,95492.53
2018-04-28T02:28:17.357Z,95497.39
2018-04-28T02:30:50.081Z,95499.31
2018-04-28T02:33:18.426Z,95494.18
2018-04-28T02:35:47.727Z,95489.66
2018-04-28T02:38:18.361Z,95493.88
2018-04-28T02:44:06.733Z,95490.53
2018-04-28T02:46:44.958Z,95498.77
2018-04-28T02:49:22.915Z,95504.47
2018-04-28T02:54:56.279Z,95505.41
2018-04-28T03:00:29.719Z,95510.28
2018-04-28T03:03:00.856Z,95511.12
2018-04-28T03:05:33.907Z,95509.06
2018-04-28T03:08:09.174Z,95518.09
2018-04-28T03:10:37.514Z,95520.23
2018-04-28T03:13:25.748Z,95530.92
2018-04-28T03:15:54.062Z,95534.59
2018-04-28T03:18:22.364Z,95538.84
2018-04-28T03:20:51.502Z,95542.41
2018-04-28T03:23:31.462Z,95542.08
2018-04-28T03:25:59.769Z,95544.28
2018-04-28T03:28:31.490Z,95543.53
2018-04-28T03:31:08.577Z,95539.70
2018-04-28T03:33:38.694Z,95539.88
2018-04-28T03:36:19.053Z,95539.31
2018-04-28T03:38:54.142Z,95540.72
2018-04-28T03:41:25.125Z,95544.95
2018-04-28T03:43:54.933Z,95546.85
2018-04-28T03:46:24.037Z,95545.76
2018-04-28T03:48:57.025Z,95548.86
2018-04-28T03:51:30.078Z,95549.44
2018-04-28T03:54:00.822Z,95558.42
2018-04-28T03:57:04.603Z,95553.09
2018-04-28T03:59:45.078Z,95551.91
2018-04-28T04:02:25.321Z,95551.04
2018-04-28T04:05:10.195Z,95564.66
2018-04-28T04:10:48.245Z,95563.88
2018-04-28T04:13:32.401Z,95567.03
2018-04-28T04:19:06.726Z,95573.61
2018-04-28T04:24:51.228Z,95577.83
2018-04-28T04:27:47.259Z,95579.73
2018-04-28T04:30:22.275Z,95577.98
2018-04-28T04:32:50.648Z,95579.76
2018-04-28T04:38:21.133Z,95579.48
2018-04-28T04:41:01.339Z,95575.94
2018-04-28T04:46:57.993Z,95584.98
2018-04-28T04:49:28.061Z,95588.43
2018-04-28T04:52:05.866Z,95589.00
2018-04-28T04:54:41.889Z,95592.67
2018-04-28T05:00:33.594Z,95602.87
2018-04-28T05:03:13.817Z,95605.33
2018-04-28T05:08:57.508Z,95613.44
2018-04-28T05:11:49.429Z,95617.67
2018-04-28T05:17:27.933Z,95631.69
2018-04-28T05:20:03.014Z,95633.70
2018-04-28T05:22:43.249Z,95631.22
2018-04-28T05:25:28.444Z,95634.63
2018-04-28T05:28:11.994Z,95636.08
2018-04-28T05:33:47.391Z,95636.20
2018-04-28T05:36:27.433Z,95633.34
2018-04-28T05:42:21.340Z,95639.15
2018-04-28T05:44:50.485Z,95635.56
2018-04-28T05:50:54.017Z,95634.61
2018-04-28T05:56:44.409Z,95636.25
2018-04-28T06:02:24.941Z,95631.96
2018-04-28T06:05:05.009Z,95631.70
2018-04-28T06:07:50.099Z,95633.34
2018-04-28T06:10:28.136Z,95633.23
2018-04-28T06:16:14.902Z,95647.15
2018-04-28T06:18:55.925Z,95645.54
2018-04-28T06:21:24.251Z,95648.28
2018-04-28T06:23:52.667Z,95649.46
2018-04-28T06:26:21.062Z,95647.77
2018-04-28T06:28:49.377Z,95646.73
2018-04-28T06:31:17.684Z,95653.45
2018-04-28T06:33:46.041Z,95658.00
2018-04-28T06:36:14.357Z,95661.28
2018-04-28T06:38:42.663Z,95665.59
2018-04-28T06:41:11.088Z,95662.55
2018-04-28T06:43:39.317Z,95656.30
2018-04-28T06:46:07.629Z,95665.10
2018-04-28T06:48:35.953Z,95656.17
2018-04-28T06:51:04.364Z,95657.72
2018-04-28T06:53:32.661Z,95658.30
2018-04-28T06:56:00.981Z,95656.29
2018-04-28T06:58:29.386Z,95660.72
2018-04-28T07:00:57.704Z,95659.48
2018-04-28T07:03:26.081Z,95652.48
2018-04-28T07:05:54.388Z,95646.27
2018-04-28T07:08:22.700Z,95645.81
2018-04-28T07:10:51.150Z,95647.73
2018-04-28T07:13:19.480Z,95651.00
2018-04-28T07:15:47.804Z,95647.45
2018-04-28T07:18:16.108Z,95645.95
2018-04-28T07:20:44.510Z,95636.80
2018-04-28T07:23:12.832Z,95640.09
2018-04-28T07:25:41.145Z,95638.92
2018-04-28T07:28:09.457Z,95638.30
2018-04-28T07:30:37.775Z,95644.53
2018-04-28T07:33:06.178Z,95644.64
2018-04-28T07:35:34.585Z,95645.33
2018-04-28T07:38:02.946Z,95646.83
2018-04-28T07:40:31.317Z,95638.70
2018-04-28T07:42:59.625Z,95644.24
2018-04-28T07:45:27.961Z,95638.05
2018-04-28T07:47:56.285Z,95632.81
2018-04-28T07:50:24.703Z,95635.82
2018-04-28T07:52:53.033Z,95635.82
2018-04-28T07:55:21.372Z,95626.89
2018-04-28T07:57:49.669Z,95631.30
2018-04-28T08:00:17.981Z,95630.93
2018-04-28T08:02:46.331Z,95621.61
2018-04-28T08:05:14.649Z,95623.15
2018-04-28T08:07:42.986Z,95624.20
2018-04-28T08:10:11.304Z,95616.75
2018-04-28T08:12:39.679Z,95619.11
2018-04-28T08:15:08.057Z,95614.88
2018-04-28T08:17:36.394Z,95616.47
2018-04-28T08:20:04.783Z,95616.75
2018-04-28T08:22:33.141Z,95615.37
2018-04-28T08:25:01.470Z,95615.04
2018-04-28T08:27:29.773Z,95610.78
2018-04-28T08:29:58.088Z,95606.38
2018-04-28T08:32:26.397Z,95610.58
2018-04-28T08:34:54.705Z,95609.73
2018-04-28T08:37:23.169Z,95603.23
2018-04-28T08:39:51.391Z,95606.80
2018-04-28T08:42:19.807Z,95600.48
2018-04-28T08:44:48.118Z,95604.97
2018-04-28T08:47:16.564Z,95597.16
2018-04-28T08:49:44.916Z,95604.36
2018-04-28T08:52:13.212Z,95598.55
2018-04-28T08:54:41.557Z,95603.20
2018-04-28T08:57:09.929Z,95592.92
2018-04-28T09:02:44.877Z,95588.55
2018-04-28T09:05:13.215Z,95586.92
2018-04-28T09:07:42.567Z,95580.73
2018-04-28T09:10:10.945Z,95584.02
2018-04-28T09:12:50.844Z,95586.25
2018-04-28T09:15:19.161Z,95578.82
2018-04-28T09:17:47.504Z,95574.08
2018-04-28T09:20:15.841Z,95573.26
2018-04-28T09:22:52.189Z,95569.38
2018-04-28T09:25:20.653Z,95565.18
2018-04-28T09:27:52.852Z,95564.99
2018-04-28T09:30:21.210Z,95567.70
2018-04-28T09:32:49.525Z,95566.25
2018-04-28T09:35:17.820Z,95555.84
2018-04-28T09:37:46.253Z,95559.25
2018-04-28T09:40:14.629Z,95549.89
2018-04-28T09:42:42.940Z,95546.81
2018-04-28T09:45:11.264Z,95543.83
2018-04-28T09:47:39.703Z,95540.89
2018-04-28T09:50:07.998Z,95535.33
2018-04-28T09:52:36.332Z,95533.60
2018-04-28T09:55:04.706Z,95535.04
2018-04-28T09:57:33.042Z,95532.48
2018-04-28T10:00:13.308Z,95524.68
2018-04-28T10:02:41.629Z,95531.18
2018-04-28T10:05:09.941Z,95520.28
2018-04-28T10:07:38.359Z,95521.63
2018-04-28T10:10:06.680Z,95512.95
2018-04-28T10:12:35.058Z,95515.84
2018-04-28T10:15:03.437Z,95510.32
2018-04-28T10:17:31.770Z,95508.34
2018-04-28T10:20:00.081Z,95497.36
2018-04-28T10:22:28.432Z,95499.52
2018-04-28T10:24:56.753Z,95499.92
2018-04-28T10:27:25.072Z,95495.81
2018-04-28T10:29:53.448Z,95488.75
2018-04-28T10:32:21.850Z,95484.67
2018-04-28T10:34:50.218Z,95478.78
2018-04-28T10:37:18.538Z,95471.19
2018-04-28T10:39:46.857Z,95464.27
2018-04-28T10:42:15.150Z,95460.98
2018-04-28T10:44:43.945Z,95457.63
2018-04-28T10:47:12.305Z,95456.56
2018-04-28T10:49:40.711Z,95453.48
2018-04-28T10:52:09.040Z,95456.86
2018-04-28T10:54:37.352Z,95452.55
2018-04-28T10:57:05.717Z,95450.12
2018-04-28T10:59:34.029Z,95446.33
2018-04-28T11:02:02.373Z,95439.16
2018-04-28T11:04:30.693Z,95429.72
2018-04-28T11:06:59.909Z,95429.07
2018-04-28T11:09:28.216Z,95423.82
2018-04-28T11:11:56.609Z,95417.58
2018-04-28T11:14:24.984Z,95415.89
2018-04-28T11:16:53.360Z,95411.80
2018-04-28T11:19:21.764Z,95409.02
2018-04-28T11:21:50.096Z,95407.34
2018-04-28T11:24:18.400Z,95400.08
2018-04-28T11:26:46.714Z,95393.50
2018-04-28T11:29:15.048Z,95388.58
2018-04-28T11:31:43.432Z,95387.90
2018-04-28T11:34:11.740Z,95384.91
2018-04-28T11:36:40.978Z,95385.27
2018-04-28T11:39:09.428Z,95377.81
2018-04-28T11:41:37.753Z,95369.84
2018-04-28T11:44:06.100Z,95369.20
2018-04-28T11:46:34.413Z,95367.13
2018-04-28T11:49:02.720Z,95365.27
2018-04-28T11:51:31.109Z,95360.17
2018-04-28T11:53:59.448Z,95360.88
2018-04-28T11:56:27.765Z,95357.69
2018-04-28T11:58:56.133Z,95346.91
2018-04-28T12:01:24.408Z,95353.50
2018-04-28T12:03:52.729Z,95350.23
2018-04-28T12:06:21.049Z,95344.36
2018-04-28T12:08:49.372Z,95341.64
2018-04-28T12:11:17.701Z,95341.38
2018-04-28T12:13:46.084Z,95347.03
2018-04-28T12:16:14.451Z,95344.86
2018-04-28T12:18:42.773Z,95341.93
2018-04-28T12:21:11.154Z,95338.89
2018-04-28T12:23:39.388Z,95325.15
2018-04-28T12:26:07.741Z,95321.94
2018-04-28T12:28:36.114Z,95325.05
2018-04-28T12:31:04.436Z,95319.09
2018-04-28T12:33:32.785Z,95313.96
2018-04-28T12:36:01.179Z,95319.16
2018-04-28T12:38:29.438Z,95315.14
2018-04-28T12:40:57.738Z,95309.02
2018-04-28T12:43:26.059Z,95309.22
2018-04-28T12:45:54.377Z,95300.15
2018-04-28T12:48:22.785Z,95298.77
2018-04-28T12:50:51.158Z,95292.27
2018-04-28T12:53:19.441Z,95292.08
2018-04-28T12:55:47.773Z,95290.61
2018-04-28T12:58:16.100Z,95280.47
2018-04-28T13:00:44.414Z,95282.53
2018-04-28T13:03:12.804Z,95278.22
2018-04-28T13:05:41.120Z,95274.33
2018-04-28T13:08:09.458Z,95280.61
2018-04-28T13:10:37.764Z,95270.69
2018-04-28T13:13:06.086Z,95264.05
2018-04-28T13:15:34.440Z,95255.75
2018-04-28T13:18:02.781Z,95263.74
2018-04-28T13:20:31.098Z,95264.69
2018-04-28T13:22:59.420Z,95255.17
2018-04-28T13:25:27.805Z,95255.67
2018-04-28T13:27:56.137Z,95253.29
2018-04-28T13:30:24.455Z,95253.59
2018-04-28T13:32:52.749Z,95242.12
2018-04-28T13:35:21.155Z,95240.42
2018-04-28T13:37:49.461Z,95235.50
2018-04-28T13:40:17.753Z,95232.73
2018-04-28T13:42:46.188Z,95232.53
2018-04-28T13:45:14.516Z,95229.88
2018-04-28T13:47:42.838Z,95222.60
2018-04-28T13:50:11.164Z,95216.66
2018-04-28T13:52:39.472Z,95224.09
2018-04-28T13:55:07.828Z,95218.95
2018-04-28T13:57:36.252Z,95214.16
2018-04-28T14:00:04.631Z,95211.58
2018-04-28T14:02:32.936Z,95217.16
2018-04-28T14:05:01.256Z,95207.56
2018-04-28T14:07:29.698Z,95208.23
2018-04-28T14:09:57.999Z,95205.59
2018-04-28T14:12:26.378Z,95194.05
2018-04-28T14:14:54.698Z,95196.92
2018-04-28T14:17:23.006Z,95190.22
2018-04-28T14:19:51.325Z,95185.55
2018-04-28T14:22:19.635Z,95187.16
2018-04-28T14:24:47.940Z,95185.21
2018-04-28T14:27:16.261Z,95180.58
2018-04-28T14:29:44.593Z,95180.47
2018-04-28T14:32:12.902Z,95176.52
2018-04-28T14:34:41.220Z,95174.95
2018-04-28T14:37:09.554Z,95177.39
2018-04-28T14:39:37.893Z,95174.48
2018-04-28T14:42:06.243Z,95172.54
2018-04-28T14:44:34.526Z,95173.00
2018-04-28T14:47:02.838Z,95180.41
2018-04-28T14:49:31.157Z,95172.39
2018-04-28T14:51:59.513Z,95173.73
2018-04-28T14:54:27.836Z,95167.28
2018-04-28T14:56:56.173Z,95175.98
2018-04-28T14:59:24.484Z,95167.47
2018-04-28T15:01:52.797Z,95175.52
2018-04-28T15:04:21.201Z,95174.78
2018-04-28T15:06:49.524Z,95163.38
2018-04-28T15:09:17.951Z,95156.45
2018-04-28T15:11:46.276Z,95155.09
2018-04-28T15:14:15.272Z,95156.54
2018-04-28T15:16:43.601Z,95161.62
2018-04-28T15:19:11.905Z,95155.22
2018-04-28T15:21:40.229Z,95152.28
2018-04-28T15:24:08.549Z,95158.25
2018-04-28T15:26:36.902Z,95148.66
2018-04-28T15:29:05.291Z,95153.20
2018-04-28T15:31:33.529Z,95157.88
2018-04-28T15:34:01.933Z,95151.17
2018-04-28T15:36:30.310Z,95151.17
2018-04-28T15:38:58.616Z,95150.59
2018-04-28T15:41:26.941Z,95151.58
2018-04-28T15:43:55.400Z,95145.73
2018-04-28T15:46:23.732Z,95148.30
2018-04-28T15:48:52.046Z,95138.78
2018-04-28T15:51:20.357Z,95141.90
2018-04-28T15:53:48.687Z,95146.22
2018-04-28T15:56:17.004Z,95137.75
2018-04-28T15:58:45.304Z,95135.00
2018-04-28T16:01:13.686Z,95138.77
2018-04-28T16:03:42.096Z,95135.27
2018-04-28T16:06:10.430Z,95127.13
2018-04-28T16:08:38.761Z,95128.51
2018-04-28T16:11:07.137Z,95122.45
2018-04-28T16:13:35.421Z,95120.68
2018-04-28T16:16:03.729Z,95126.69
2018-04-28T16:18:32.157Z,95131.91
2018-04-28T16:21:00.463Z,95130.26
2018-04-28T16:23:28.784Z,95123.44
2018-04-28T16:25:57.117Z,95122.37
2018-04-28T16:28:25.491Z,95128.14
2018-04-28T16:30:53.784Z,95117.93
2018-04-28T16:33:22.200Z,95122.07
2018-04-28T16:35:50.522Z,95117.77
2018-04-28T16:38:18.866Z,95124.36
2018-04-28T16:40:47.252Z,95125.27
2018-04-28T16:43:15.615Z,95114.80
2018-04-28T16:45:43.993Z,95119.45
2018-04-28T16:48:12.474Z,95116.76
2018-04-28T16:50:40.834Z,95112.07
2018-04-28T16:53:09.097Z,95118.02
2018-04-28T16:55:37.446Z,95123.50
2018-04-28T16:58:05.746Z,95116.12
2018-04-28T17:00:34.060Z,95118.05
2018-04-28T17:03:02.390Z,95115.44
2018-04-28T17:05:30.697Z,95111.47
2018-04-28T17:07:59.076Z,95107.05
2018-04-28T17:10:27.407Z,95113.88
2018-04-28T17:12:55.738Z,95124.22
2018-04-28T17:15:24.124Z,95117.03
2018-04-28T17:17:55.260Z,95112.01
2018-04-28T17:20:23.576Z,95118.26
2018-04-28T17:22:51.916Z,95121.08
2018-04-28T17:25:20.236Z,95117.69
2018-04-28T17:27:48.553Z,95122.55
2018-04-28T17:30:16.894Z,95118.60
2018-04-28T17:32:45.229Z,95122.19
2018-04-28T17:35:13.542Z,95116.30
2018-04-28T17:37:41.847Z,95122.12
2018-04-28T17:40:10.173Z,95129.25
2018-04-28T17:42:38.481Z,95127.86
2018-04-28T17:45:06.791Z,95129.55
2018-04-28T17:47:35.178Z,95128.00
2018-04-28T17:50:03.501Z,95130.45
2018-04-28T17:52:31.871Z,95130.77
2018-04-28T17:55:00.228Z,95130.86
2018-04-28T17:57:28.548Z,95137.18
2018-04-28T17:59:56.976Z,95133.81
2018-04-28T18:02:25.304Z,95133.94
2018-04-28T18:04:53.676Z,95140.52
2018-04-28T18:07:21.996Z,95141.77
2018-04-28T18:09:50.395Z,95145.77
2018-04-28T18:12:18.765Z,95147.25
2018-04-28T18:14:47.077Z,95148.55
2018-04-28T18:17:15.459Z,95154.05
2018-04-28T18:19:43.760Z,95150.88
2018-04-28T18:22:12.066Z,95151.61
2018-04-28T18:24:40.454Z,95157.89
2018-04-28T18:27:08.765Z,95162.33
2018-04-28T18:29:37.073Z,95156.83
2018-04-28T18:32:05.389Z,95156.38
2018-04-28T18:34:33.801Z,95157.48
2018-04-28T18:37:03.021Z,95154.57
2018-04-28T18:39:31.381Z,95158.38
2018-04-28T18:42:00.642Z,95160.03
2018-04-28T18:44:29.061Z,95160.61
2018-04-28T18:46:57.392Z,95161.42
2018-04-28T18:49:25.773Z,95161.51
2018-04-28T18:51:54.149Z,95169.99
2018-04-28T18:54:22.482Z,95161.67
2018-04-28T18:56:50.786Z,95168.77
2018-04-28T18:59:19.177Z,95165.59
2018-04-28T19:01:47.560Z,95169.39
2018-04-28T19:04:15.950Z,95168.04
2018-04-28T19:06:44.253Z,95171.98
2018-04-28T19:09:12.569Z,95171.02
2018-04-28T19:11:40.889Z,95168.22
2018-04-28T19:14:09.226Z,95169.86
2018-04-28T19:16:37.545Z,95169.23
2018-04-28T19:19:05.907Z,95173.56
2018-04-28T19:21:34.394Z,95171.88
2018-04-28T19:24:02.715Z,95178.91
2018-04-28T19:26:31.018Z,95176.42
2018-04-28T19:28:59.424Z,95171.61
2018-04-28T19:31:27.744Z,95170.61
2018-04-28T19:33:56.066Z,95178.54
2018-04-28T19:36:24.363Z,95176.67
2018-04-28T19:38:52.735Z,95185.36
2018-04-28T19:41:21.106Z,95182.95
2018-04-28T19:43:49.421Z,95185.59
2018-04-28T19:46:17.763Z,95184.77
2018-04-28T19:48:46.198Z,95192.14
2018-04-28T19:51:14.468Z,95191.37
2018-04-28T19:53:42.787Z,95192.06
2018-04-28T19:56:11.281Z,95198.93
2018-04-28T19:58:39.605Z,95199.92
2018-04-28T20:01:08.041Z,95194.41
2018-04-28T20:03:36.351Z,95197.38
2018-04-28T20:06:04.657Z,95191.47
2018-04-28T20:08:32.992Z,95195.03
2018-04-28T20:11:01.342Z,95188.94
2018-04-28T20:13:29.683Z,95189.93
2018-04-28T20:15:58.014Z,95192.27
2018-04-28T20:18:26.320Z,95189.53
2018-04-28T20:20:54.617Z,95187.77
2018-04-28T20:23:34.599Z,95188.57
2018-04-28T20:26:02.913Z,95188.38
2018-04-28T20:28:31.205Z,95184.05
2018-04-28T20:31:00.626Z,95184.05
2018-04-28T20:33:28.934Z,95180.69
2018-04-28T20:35:57.388Z,95185.40
2018-04-28T20:38:25.678Z,95178.94
2018-04-28T20:40:54.000Z,95177.37
2018-04-28T20:43:22.336Z,95173.64
2018-04-28T20:45:50.716Z,95174.81
2018-04-28T20:48:19.032Z,95175.92
2018-04-28T20:50:47.514Z,95172.98
2018-04-28T20:53:15.820Z,95172.03
2018-04-28T20:55:44.131Z,95169.84
2018-04-28T20:58:12.445Z,95176.70
2018-04-28T21:00:40.750Z,95181.14
2018-04-28T21:03:09.065Z,95184.30
2018-04-28T21:05:37.382Z,95180.58
2018-04-28T21:08:05.717Z,95175.89
2018-04-28T21:10:34.029Z,95171.97
2018-04-28T21:13:02.345Z,95174.31
2018-04-28T21:15:30.740Z,95172.16
2018-04-28T21:17:59.063Z,95165.08
2018-04-28T21:20:27.429Z,95163.08
2018-04-28T21:22:55.762Z,95161.94
2018-04-28T21:25:24.156Z,95160.09
2018-04-28T21:27:52.474Z,95159.74
2018-04-28T21:30:20.805Z,95158.81
2018-04-28T21:32:49.198Z,95160.97
2018-04-28T21:35:17.504Z,95157.05
2018-04-28T21:37:45.856Z,95159.83
2018-04-28T21:40:15.101Z,95158.81
2018-04-28T21:42:43.518Z,95161.55
2018-04-28T21:45:11.838Z,95158.38
2018-04-28T21:47:40.149Z,95164.20
2018-04-28T21:50:08.561Z,95161.73
2018-04-28T21:52:36.888Z,95167.98
2018-04-28T21:55:05.190Z,95169.16
2018-04-28T21:57:33.584Z,95165.23
2018-04-28T22:00:01.971Z,95166.52
2018-04-28T22:02:30.350Z,95160.11
2018-04-28T22:04:58.664Z,95157.66
2018-04-28T22:07:27.040Z,95162.70
2018-04-28T22:09:55.382Z,95154.31
2018-04-28T22:12:23.690Z,95159.41
2018-04-28T22:14:52.014Z,95163.81
2018-04-28T22:17:20.405Z,95155.13
2018-04-28T22:19:48.725Z,95159.50
2018-04-28T22:22:17.265Z,95152.55
2018-04-28T22:24:45.644Z,95148.86
2018-04-28T22:27:14.027Z,95143.39
2018-04-28T22:29:42.357Z,95134.42
2018-04-28T22:32:10.777Z,95136.16
2018-04-28T22:34:39.096Z,95140.75
2018-04-28T22:37:07.418Z,95147.67
2018-04-28T22:39:35.729Z,95149.64
2018-04-28T22:42:04.044Z,95152.77
2018-04-28T22:44:32.431Z,95147.11
2018-04-28T22:47:00.738Z,95148.08
2018-04-28T22:49:29.054Z,95153.25
2018-04-28T22:51:57.379Z,95152.70
2018-04-28T22:54:25.699Z,95144.13
2018-04-28T22:56:54.058Z,95146.59
2018-04-28T22:59:22.385Z,95147.59
2018-04-28T23:01:50.713Z,95151.07
2018-04-28T23:04:19.015Z,95149.67
2018-04-28T23:06:47.382Z,95141.22
2018-04-28T23:09:15.693Z,95145.28
2018-04-28T23:11:44.026Z,95144.28
2018-04-28T23:14:12.361Z,95145.14
2018-04-28T23:16:40.764Z,95144.02
2018-04-28T23:19:09.084Z,95144.00
2018-04-28T23:21:37.409Z,95141.02
2018-04-28T23:24:05.713Z,95127.12
2018-04-28T23:26:34.193Z,95131.97
2018-04-28T23:29:02.556Z,95122.25
2018-04-28T23:31:30.948Z,95128.47
2018-04-28T23:33:59.312Z,95124.64
2018-04-28T23:36:27.694Z,95121.95
2018-04-28T23:38:56.070Z,95120.59
2018-04-28T23:41:24.381Z,95116.72
2018-04-28T23:43:52.709Z,95110.77
2018-04-28T23:46:21.053Z,95107.59
2018-04-28T23:48:49.384Z,95109.73
2018-04-28T23:51:17.869Z,95105.66
2018-04-28T23:53:46.178Z,95099.39
2018-04-28T23:56:14.484Z,95105.45
2018-04-28T23:58:42.811Z,95098.59
